Bruno Alves

Recruteur en chef - Criciuma
19 Août 2027
Jeudi
Processus

Personnalité

Adaptabilité (20) Ambition (4) Controverse (11) Loyauté (13) Pression (10) Professionnalisme (5) Sportivité (11) Tempérament (4)

Profil

Style d'entraînement Démocratique
Diplôme National B
Détermination 6
Gestion des joueurs 10
Motivation 8
Discipline 7
Satisfaction professionnelle
100%
Fatigue
0%
Rôle Recruteur en chef
Salaire 61.6K p/s
Contrat 14.03.2028

Performance

Comportement Bon
Efficacité de l'entraînement
24%
Développement des joueurs
50%
Prévention des blessures
50%
Mise en place tactique
20%

Événements récents

A participé à une réunion de recrutement maintenant
A recommandé une cible de transfert maintenant
A recommandé une cible de transfert maintenant
A recommandé une cible de transfert maintenant
A recommandé une cible de transfert maintenant
A participé à une réunion de recrutement maintenant
A participé à une réunion de recrutement 7j
A participé à une réunion de recrutement 7j

Suivi en cours

188
Joueur Club Statut Capacité Confiance Observé Dernière observation Dernier vote
Riquelme Grêmio Actif 91 / 112 72% 1 14.06.2027 Approuver
Dion Beljo Standard Liege Actif 131 / 132 66% 1 01.06.2027 Approuver
Markus Jensen Nacional Actif 116 / 114 40% 5 31.05.2027 -
Yussif Saidu Zaragoza Actif 132 / 122 40% 2 31.05.2027 -
Francisco Fernandes Porto Actif 79 / 106 40% 2 31.05.2027 -
Iwan Morgan Grimsby Town Actif 119 / 124 40% 8 30.05.2027 -
Federico Serra Arezzo Actif 81 / 83 40% 4 28.05.2027 -
Paco Esteban Virtus Entella Actif 91 / 97 40% 3 28.05.2027 -
Hassan Beja AFC Leopards Actif 97 / 99 40% 1 28.05.2027 -
Fletcher Holman Swindon Town Actif 82 / 91 40% 5 25.05.2027 -
Dilan Neves Benfica Actif 83 / 98 40% 6 25.05.2027 -
Tiziano Dornell Danubio Actif 115 / 126 40% 3 20.05.2027 -
Gustavo Ferreira Benfica Actif 82 / 91 40% 6 19.05.2027 -
Matvii Ponomarenko Dynamo Kyiv Actif 115 / 105 40% 5 18.05.2027 -
Sidiki Chérif Coventry City Actif 129 / 139 40% 8 16.05.2027 -
Leo Castledine Middlesbrough Actif 123 / 139 40% 4 16.05.2027 -
Darlvin Yeboah Bechem United Actif 88 / 81 40% 7 15.05.2027 -
Víctor Guzmán Sporting CP Actif 102 / 93 40% 6 13.05.2027 -
Manuel Simões Sporting CP Actif 71 / 80 40% 1 13.05.2027 -
Borna Knezović Casarano Actif 93 / 110 40% 2 09.05.2027 -
Chineme Chinonso Ikorodu City Actif 87 / 93 40% 3 08.05.2027 -
Octávio Silva Artigas Actif 85 / 78 40% 1 06.05.2027 -
Lorenzo De Leo Renate Actif 94 / 116 40% 4 05.05.2027 -
Ben Ahmed Kohili Paradou Actif 94 / 120 40% 5 03.05.2027 -
Rayan Bournemouth Actif 145 / 148 40% 3 03.05.2027 -
Gabriel Melo Dugopolje Actif 93 / 83 40% 2 02.05.2027 -
Hazeem Bakre Crawley Town Actif 85 / 89 40% 7 02.05.2027 -
Amaury Morales Pumas UNAM Actif 117 / 131 40% 4 01.05.2027 -
Zaïd BafdilI Sporting CP Actif 89 / 95 40% 4 01.05.2027 -
Eduardo Fernandes Benfica Actif 106 / 111 40% 2 01.05.2027 -
Chinonso Chibueze Harrogate Town Actif 69 / 92 40% 1 01.05.2027 -
Luke Baartman ES Mostaganem Actif 106 / 114 40% 5 29.04.2027 -
Alagie Wally Veres Actif 80 / 87 40% 1 29.04.2027 -
Mateus Mané Manchester United Actif 126 / 156 40% 3 28.04.2027 -
Martim Cunha Porto Actif 108 / 125 40% 3 27.04.2027 -
Monty Batlhabane Polokwane City Actif 90 / 84 40% 1 27.04.2027 -
Baba N'Diaye Chelyabinsk Actif 80 / 89 40% 2 26.04.2027 -
Toni Tamarit Alverca Actif 112 / 128 40% 8 24.04.2027 -
Godbless Ayeke AS Korofina Actif 79 / 70 40% 2 24.04.2027 -
Mathis Jangeal Famalicao Actif 107 / 98 40% 8 23.04.2027 -
Jofre Torrents Ajax Actif 114 / 141 40% 1 23.04.2027 Plus d'infos
Thulani Erasmus Platinum Stars Actif 101 / 120 40% 2 21.04.2027 -
Umar Abubakar Famalicao Actif 95 / 81 40% 2 21.04.2027 -
Njabulo Hlongwane Binga Actif 75 / 73 40% 1 21.04.2027 -
Dramane Kamagaté USM Alger Actif 103 / 127 40% 2 19.04.2027 -
Kelian Baruti Liamba Estoril Praia Actif 89 / 114 40% 4 18.04.2027 -
Leandro Martins Benfica Actif 103 / 97 40% 2 18.04.2027 -
Michael Noumon Heart of Lions Actif 74 / 74 40% 3 14.04.2027 -
Jonás Luna Santa Clara Actif 116 / 113 40% 5 12.04.2027 -
Ethan Williams Peterborough United Actif 113 / 107 40% 1 11.04.2027 -
Vasco Santos Oliveirense Actif 94 / 110 40% 1 11.04.2027 -
David Kalokoh Ajax Actif 116 / 135 40% 3 09.04.2027 -
Salvador Blopá Casa Pia Actif 117 / 131 40% 1 06.04.2027 -
Daniel Costa Sporting CP Actif 92 / 86 40% 1 06.04.2027 -
Wendell Livyi Bereh Actif 87 / 113 40% 1 05.04.2027 -
Williams Furman Black Aces Actif 65 / 73 40% 3 03.04.2027 -
Lwanda Mbanjwa Maritzburg United Actif 84 / 91 40% 2 03.04.2027 -
Jovan Milošević Braga Actif 126 / 134 40% 6 03.04.2027 -
Ernie Weaver AFC Wimbledon Actif 105 / 118 40% 2 03.04.2027 -
Keagan Tau Ajax Cape Town Actif 90 / 114 40% 1 03.04.2027 -
Arthur Maron São Paulo Actif 89 / 101 40% 2 31.03.2027 -
Fuzy Taylor Medeama Actif 73 / 91 40% 1 29.03.2027 -
José Pachuca Puebla Actif 116 / 123 40% 2 26.03.2027 -
Josh Smith Accrington Stanley Actif 85 / 92 40% 1 26.03.2027 -
Rayhan Momade Sporting CP Actif 100 / 113 40% 1 26.03.2027 -
Dom Ballard Leyton Orient Actif 123 / 130 40% 4 24.03.2027 -
Afonso Assis Moreirense Actif 112 / 115 40% 1 21.03.2027 -
Bastien Meupiyou Alverca Actif 116 / 109 40% 2 19.03.2027 -
Joaquin Seys Club Brugge Actif 126 / 119 40% 1 19.03.2027 -
Gonçalo Oliveira Benfica Actif 115 / 114 40% 1 17.03.2027 -
João Capucho Benfica Actif 102 / 102 40% 1 15.03.2027 -
Dylan Lawlor Cardiff City Actif 123 / 122 40% 1 15.03.2027 -
Sule John US Forces Armees Actif 79 / 85 40% 2 12.03.2027 -
Matvey Kislyak CSKA Moscow Actif 130 / 139 40% 2 11.03.2027 -
Percy Jali Free State Stars Actif 86 / 104 40% 1 11.03.2027 -
Matías Gómez Granada Actif 114 / 106 40% 1 11.03.2027 Plus d'infos
João Teixeira Porto Actif 99 / 117 40% 1 08.03.2027 -
Zane Albarus Cambridge United Actif 99 / 107 40% 1 08.03.2027 -
Deivid Washington RC Strasbourg Actif 116 / 134 40% 5 06.03.2027 -
Daniel Vernattus Metalist Actif 83 / 105 40% 1 05.03.2027 -
Thomas Waddingham Portsmouth Actif 112 / 109 40% 1 03.03.2027 -
Will Lankshear Middlesbrough Actif 118 / 124 40% 1 27.02.2027 -
Rudi Almeida Famalicao Actif 85 / 81 40% 3 19.02.2027 -
Nordan Mukiele Stade Rennais Actif 88 / 103 40% 1 16.02.2027 -
Lévy Néne FC Nordsjaelland Actif 114 / 111 40% 1 13.02.2027 -
Ognjen Bondžulić Mladost Lucani Actif 96 / 98 40% 1 13.02.2027 -
Léo Jacó Santa Clara Actif 101 / 102 40% 1 05.02.2027 -
Francis Sulemana BA All Stars Actif 78 / 83 40% 1 05.02.2027 -
Lucas Høgsberg RC Strasbourg Actif 126 / 150 40% 1 07.01.2027 -
Sabil Hansen Randers Actif 117 / 118 40% 1 07.01.2027 -
Vinícius Lopes Santa Clara Actif 119 / 131 40% 3 16.12.2026 -
Dinis Pinto Moreirense Actif 122 / 147 40% 1 16.12.2026 -
Amar Memić Casa Pia Actif 127 / 128 62% 1 01.12.2026 Approuver
Andreas Trimmel Red Bull Salzburg Actif 131 / 131 60% 1 01.12.2026 Approuver
Kévin Zohi Torreense Actif 117 / 103 40% 2 29.11.2026 -
Peter Shalulile Mamelodi Sundowns Actif 136 / 111 40% 3 29.11.2026 Observer
Yousef Salech Cardiff City Actif 126 / 125 40% 1 29.11.2026 -
Oli McBurnie Hull City Actif 123 / 149 40% 3 28.11.2026 -
Juninho Pumas UNAM Actif 134 / 119 40% 4 28.11.2026 -
Elijah Adebayo Luton Town Actif 112 / 108 40% 1 28.11.2026 -
Zé Leite Leixões Actif 108 / 115 40% 4 27.11.2026 -
André Silva Tondela Actif 124 / 144 40% 1 27.11.2026 -
Negueba Mirassol Actif 125 / 110 40% 3 25.11.2026 -
Dawda Camara Alverca Actif 124 / 136 40% 6 25.11.2026 -
Lewis Morgan SuperSport United Actif 123 / 142 40% 3 24.11.2026 Observer
Yassin Fortuné Vizela Actif 112 / 97 40% 1 24.11.2026 -
Juan Muñoz Leiria Actif 134 / 120 40% 5 19.11.2026 -
Pablo Ruan Nacional Actif 112 / 110 40% 2 18.11.2026 -
Ricardo Valente SV Ried Actif 101 / 107 40% 1 18.11.2026 -
Hany Mukhtar Spezia Actif 142 / 122 40% 1 16.11.2026 Plus d'infos
Figueiredo Alverca Actif 135 / 142 40% 5 15.11.2026 Observer
Yoane Wissa Newcastle United Actif 135 / 137 40% 1 15.11.2026 -
Yanis Begraoui Estoril Praia Actif 123 / 115 40% 1 15.11.2026 -
Andre Green AVS Actif 115 / 125 40% 3 14.11.2026 -
Jair Silva Leiria Actif 115 / 126 40% 1 13.11.2026 -
Tomané Tondela Actif 109 / 91 40% 1 13.11.2026 -
Pablo Fernández Leiria Actif 124 / 92 40% 2 12.11.2026 -
Mésaque Djú Portimonense Actif 99 / 107 40% 1 11.11.2026 -
Chuchu Ramírez Nacional Actif 139 / 114 40% 4 07.11.2026 -
Pau Víctor AVS Actif 136 / 134 40% 3 06.11.2026 -
Jonathan Calleri Sport Recife Actif 139 / 147 40% 5 06.11.2026 Observer
Romelu Castagne KV Oostende Actif 133 / 127 40% 2 03.11.2026 Plus d'infos
Bamba Dieng Crvena Zvezda Actif 123 / 116 40% 1 03.11.2026 -
Jalen Blesa Rio Ave Actif 123 / 135 40% 1 02.11.2026 -
Heung-Min Son Los Angeles Football Club Actif 154 / 168 40% 2 01.11.2026 -
Marezi Portsmouth Actif 122 / 133 40% 1 01.11.2026 -
Miguel Falé Pacos de Ferreira Actif 99 / 104 40% 1 31.10.2026 -
Sead Hakšabanović Malmo FF Actif 117 / 133 40% 1 31.10.2026 -
Ianis Stoica Estrela da Amadora Actif 121 / 121 40% 1 30.10.2026 -
Mohammed Bouldini Académico de Viseu Actif 122 / 133 40% 4 27.10.2026 -
Joe Gelhardt Hull City Actif 124 / 146 40% 1 27.10.2026 -
André Lacximicant Estoril Praia Actif 113 / 96 40% 1 25.10.2026 -
Aune Heggebø West Bromwich Albion Actif 128 / 126 40% 1 25.10.2026 -
Rodrigo Marquês Oliveirense Actif 86 / 98 40% 1 20.10.2026 -
Manuel Ospina Cortulua Actif 122 / 114 40% 1 19.10.2026 -
Rui Pedro Felgueiras Actif 100 / 112 40% 1 18.10.2026 -
Fotis Ioannidis Rio Ave Actif 148 / 126 40% 6 17.10.2026 -
Rodrigo Bogarín Barracas Central Actif 127 / 127 40% 2 15.10.2026 -
Andrés Rentería Jaguares Actif 115 / 111 40% 1 14.10.2026 -
Kévin Denkey FC Cincinnati Actif 120 / 128 40% 1 12.10.2026 -
Bénie Traoré New York City Actif 128 / 134 40% 2 10.10.2026 -
Dylan Nandín Arouca Actif 124 / 128 40% 1 10.10.2026 -
Héctor Hernández Gil Vicente Actif 114 / 116 40% 5 09.10.2026 -
Paulinho Toluca Actif 150 / 146 40% 1 08.10.2026 -
Alfonso Trezza Arouca Actif 121 / 129 40% 4 07.10.2026 -
Juanda Fuentes Penafiel Actif 99 / 121 40% 2 07.10.2026 -
Korede Osundina Casa Pia Actif 120 / 130 40% 1 07.10.2026 -
Adnan Courtois KV Oostende Actif 126 / 151 40% 1 03.10.2026 -
Tiago Leite Felgueiras Actif 113 / 95 40% 1 01.10.2026 -
Mandla Mahlangu Ajax Cape Town Actif 103 / 112 40% 1 28.09.2026 -
Sam Surridge Nashville SC Actif 126 / 133 40% 1 25.09.2026 -
Jordan Morris Seattle Sounders Actif 115 / 125 40% 1 24.09.2026 -
Antoine Griezmann Orlando City Actif 144 / 161 40% 2 19.09.2026 -
Antony Alonso Deportivo Riestra Actif 126 / 132 40% 1 15.09.2026 -
Mo Dauda Portimonense Actif 92 / 107 40% 1 15.09.2026 -
Marcus Ingvartsen San Diego Football Club Actif 116 / 120 40% 1 14.09.2026 -
Lucas Moura Sport Recife Actif 142 / 139 40% 3 09.09.2026 -
Maximiliano Rodríguez Huachipato Actif 121 / 109 40% 1 07.09.2026 -
Jorge Meireles AVS Actif 101 / 106 40% 1 07.09.2026 -
Wessam Abou Ali Columbus Crew Actif 129 / 117 40% 1 06.09.2026 -
Willian José Bahia Actif 130 / 123 40% 1 05.09.2026 -
Martín Ojeda Orlando City Actif 131 / 113 40% 4 04.09.2026 -
Luis Muriel Junior Actif 122 / 127 40% 1 04.09.2026 -
Jorge Aguirre Torreense Actif 94 / 88 40% 1 03.09.2026 -
André Clovis Leiria Actif 115 / 133 40% 1 03.09.2026 -
João Costa Santa Clara Actif 119 / 122 40% 2 01.09.2026 -
Javier Correa Colo-Colo Actif 124 / 129 40% 1 30.08.2026 -
Anthony Carter Vizela Actif 99 / 114 40% 1 29.08.2026 -
Maximiliano Gómez Nacional Actif 122 / 133 40% 1 28.08.2026 -
Gustavo Silva Vitoria Guimaraes Actif 120 / 114 40% 1 28.08.2026 -
Arnel Jakupović Vitoria Guimaraes Actif 126 / 118 40% 2 27.08.2026 -
Léo Bonatini Brondby Actif 117 / 98 40% 1 27.08.2026 -
Dejan Joveljić Seattle Sounders Actif 122 / 139 40% 1 23.08.2026 -
Freddy Gomez La Equidad Actif 133 / 142 40% 1 22.08.2026 -
John Kennedy Fluminense Actif 120 / 115 40% 1 22.08.2026 -
Gabriel Barbosa Farense Actif 107 / 97 40% 1 19.08.2026 -
Roméo Beney Famalicao Actif 112 / 114 40% 3 16.08.2026 -
Alexandre Duville-Parsemain Moreirense Actif 108 / 121 40% 1 12.08.2026 -
Henrique Araújo Casa Pia Actif 125 / 105 40% 1 12.08.2026 -
Tamble Monteiro Rio Ave Actif 125 / 129 40% 2 09.08.2026 -
Jonny Arriba Cádiz Actif 109 / 118 40% 1 06.08.2026 -
Bryan Róchez Chaves Actif 115 / 108 40% 1 06.08.2026 -
Luciano Sport Recife Actif 129 / 129 40% 1 05.08.2026 -
João Vasconcelos Santa Clara Actif 97 / 98 40% 1 05.08.2026 -
Miguel Nogueira Vitoria Guimaraes Actif 119 / 100 40% 1 05.08.2026 -
William Gomes Porto Actif 129 / 130 40% 1 04.08.2026 -
Ricard Sánchez Estoril Praia Actif 125 / 131 40% 1 01.08.2026 -
Sergi Altimira Sporting CP Actif 144 / 146 40% 1 01.08.2026 -